»·PEaware :: QXE2704 KSEA-KPDX

QXE2704 :: KSEA-KPDX

FLIGHT INFORMATION

Flight Status: Arrived
Operator:
Horizon Air
More flights by this operator :: More flights under this callsign
Pilot: Adlai G. (28854)
Aircraft: DEHAVILLAND DASH 8 400
(DH8D)
More flights by this aircraft type
Origin: KSEA Seattle-Tacoma Intl
United States
Destination: KPDX Portland Intl
United States
More flights between these airports :: More routes between these airports
Route: SEA7 SEA HELNS6
File this flight plan on PilotEdge
Remarks:
Altitude:
(Current/Filed)
17,000ft
Speed:
(Current/Filed)
373kts
Departed: 25-Jun-20 10:48 AM
Arrived: 25-Jun-20 11:24 AM
Distance/Time
Traveled:
112nm/0:36
Distance/Time
To Go:
Arrived

Flight Plot

Page will automatically refresh every two minutes.


Map Options




Map Legend


Flown Route
Filed Route
Departure Airport
Arrival Airport
Navaid (VOR, NDB)
Fix

Horizontal Profiles

Position Reports

Time Latitude Longitude Heading Altitude Ground
Speed
25-Jun-20 10:18 47.443625 -122.304612 0 440ft 0kts
25-Jun-20 10:19 47.443625 -122.304612 0 440ft 0kts
25-Jun-20 10:20 47.443625 -122.304612 0 440ft 0kts
25-Jun-20 10:21 47.443625 -122.304612 0 440ft 0kts
25-Jun-20 10:22 47.443625 -122.304612 0 440ft 0kts
25-Jun-20 10:24 47.443625 -122.304612 0 440ft 0kts
25-Jun-20 10:25 47.443625 -122.304612 0 440ft 0kts
25-Jun-20 10:26 47.443625 -122.304612 0 440ft 0kts
25-Jun-20 10:27 47.443625 -122.304612 0 440ft 0kts
25-Jun-20 10:28 47.443625 -122.304612 0 440ft 0kts
25-Jun-20 10:29 47.443625 -122.304612 0 440ft 0kts
25-Jun-20 10:30 47.443625 -122.304612 0 440ft 0kts
25-Jun-20 10:31 47.443625 -122.304612 0 440ft 0kts
25-Jun-20 10:32 47.443625 -122.304612 0 440ft 0kts
25-Jun-20 10:33 47.443625 -122.304612 0 440ft 0kts
25-Jun-20 10:34 47.443625 -122.304612 0 440ft 0kts
25-Jun-20 10:35 47.443625 -122.304612 0 440ft 0kts
25-Jun-20 10:36 47.443625 -122.304612 0 440ft 0kts
25-Jun-20 10:37 47.443625 -122.304612 0 440ft 0kts
25-Jun-20 10:38 47.443625 -122.304612 0 440ft 0kts
25-Jun-20 10:38 47.443478 -122.304599 344 440ft 3kts
25-Jun-20 10:40 47.443261 -122.304047 270 440ft 0kts
25-Jun-20 10:41 47.443261 -122.304047 270 440ft 0kts
25-Jun-20 10:41 47.443261 -122.304046 270 440ft 0kts
25-Jun-20 10:43 47.443261 -122.304047 270 440ft 0kts
25-Jun-20 10:43 47.443263 -122.304477 270 440ft 4kts
25-Jun-20 10:44 47.441932 -122.306333 180 440ft 12kts
25-Jun-20 10:46 47.435881 -122.306283 163 440ft 19kts
25-Jun-20 10:46 47.432308 -122.305802 194 440ft 15kts
25-Jun-20 10:47 47.432676 -122.307999 0 440ft 47kts
25-Jun-20 10:48 47.470428 -122.306676 1 2260ft 168kts
25-Jun-20 10:49 47.523072 -122.303428 1 5305ft 195kts
25-Jun-20 10:50 47.576708 -122.320016 320 8200ft 205kts
25-Jun-20 10:51 47.561778 -122.384498 186 10493ft 222kts
25-Jun-20 10:52 47.497065 -122.350243 156 11538ft 267kts
25-Jun-20 10:53 47.427037 -122.310173 174 12897ft 274kts
25-Jun-20 10:54 47.350244 -122.309226 182 14220ft 277kts
25-Jun-20 10:55 47.274438 -122.309426 182 15682ft 273kts
25-Jun-20 10:56 47.197443 -122.309441 182 16848ft 282kts
25-Jun-20 10:57 47.114069 -122.309713 182 16995ft 317kts
25-Jun-20 10:58 47.023122 -122.309705 182 16999ft 336kts
25-Jun-20 10:59 46.928452 -122.309664 182 16999ft 344kts
25-Jun-20 11:00 46.831868 -122.309834 182 16999ft 349kts
25-Jun-20 11:01 46.734847 -122.309775 182 16998ft 350kts
25-Jun-20 11:02 46.636750 -122.309807 181 16997ft 353kts
25-Jun-20 11:03 46.538636 -122.309736 181 16988ft 354kts
25-Jun-20 11:04 46.440223 -122.309572 181 16544ft 355kts
25-Jun-20 11:05 46.340341 -122.309753 181 14769ft 359kts
25-Jun-20 11:06 46.243419 -122.312616 193 12933ft 343kts
25-Jun-20 11:07 46.158343 -122.365663 203 10821ft 317kts
25-Jun-20 11:08 46.077620 -122.409993 201 9979ft 301kts
25-Jun-20 11:09 46.000683 -122.452718 201 9956ft 294kts
25-Jun-20 11:10 45.924211 -122.494603 200 9957ft 295kts
25-Jun-20 11:11 45.847570 -122.536720 201 9906ft 293kts
25-Jun-20 11:12 45.774724 -122.587546 232 8412ft 292kts
25-Jun-20 11:13 45.779543 -122.688800 296 6916ft 256kts
25-Jun-20 11:14 45.809089 -122.783427 295 5157ft 259kts
25-Jun-20 11:15 45.832890 -122.878425 263 4025ft 253kts
25-Jun-20 11:16 45.784202 -122.936567 206 3984ft 214kts
25-Jun-20 11:17 45.733555 -122.932004 136 4011ft 202kts
25-Jun-20 11:18 45.695567 -122.868599 123 3789ft 209kts
25-Jun-20 11:19 45.665538 -122.801135 118 2811ft 194kts
25-Jun-20 11:20 45.639802 -122.735738 117 1821ft 185kts
25-Jun-20 11:21 45.617363 -122.678407 118 945ft 135kts
25-Jun-20 11:22 45.600447 -122.635223 117 278ft 125kts
25-Jun-20 11:23 45.587710 -122.602349 114 37ft 28kts
25-Jun-20 11:24 45.587933 -122.600663 62 37ft 0kts
25-Jun-20 11:25 45.588059 -122.600362 55 37ft 7kts
25-Jun-20 11:26 45.589934 -122.599900 66 37ft 5kts
25-Jun-20 11:27 45.589986 -122.599728 66 37ft 0kts
25-Jun-20 11:28 45.589986 -122.599728 66 37ft 0kts
25-Jun-20 11:29 45.589986 -122.599728 66 37ft 0kts
25-Jun-20 11:30 45.589986 -122.599728 66 37ft 0kts
25-Jun-20 11:31 45.589986 -122.599728 66 37ft 0kts
25-Jun-20 11:32 45.589986 -122.599728 66 37ft 0kts
25-Jun-20 11:33 45.589986 -122.599728 66 37ft 0kts
25-Jun-20 11:34 45.589986 -122.599728 66 37ft 0kts
25-Jun-20 11:35 45.589986 -122.599728 66 37ft 0kts
25-Jun-20 11:36 45.589986 -122.599728 66 37ft 0kts
25-Jun-20 11:37 45.589986 -122.599728 66 37ft 0kts

Navigation Log

Ident Type
Flight plan parsing failed, navigation log unavailable